createdAt,value
2018-02-16T00:00:50.352Z,2.50
2018-02-16T00:02:18.512Z,2.46
2018-02-16T00:03:45.542Z,2.43
2018-02-16T00:05:12.417Z,2.45
2018-02-16T00:06:39.242Z,2.46
2018-02-16T00:08:06.326Z,2.46
2018-02-16T00:09:32.552Z,2.38
2018-02-16T00:10:59.812Z,2.37
2018-02-16T00:12:27.006Z,2.34
2018-02-16T00:13:55.205Z,2.37
2018-02-16T00:15:22.565Z,2.40
2018-02-16T00:16:48.258Z,2.43
2018-02-16T00:18:14.844Z,2.45
2018-02-16T00:19:42.012Z,2.46
2018-02-16T00:21:08.827Z,2.48
2018-02-16T00:22:35.448Z,2.50
2018-02-16T00:24:02.304Z,2.50
2018-02-16T00:25:29.540Z,2.45
2018-02-16T00:26:57.174Z,2.47
2018-02-16T00:28:23.642Z,2.46
2018-02-16T00:29:49.292Z,2.48
2018-02-16T00:31:17.420Z,2.46
2018-02-16T00:32:44.574Z,2.47
2018-02-16T00:34:10.619Z,2.42
2018-02-16T00:35:38.729Z,2.41
2018-02-16T00:37:04.945Z,2.42
2018-02-16T00:38:33.118Z,2.43
2018-02-16T00:40:00.306Z,2.37
2018-02-16T00:41:26.075Z,2.38
2018-02-16T00:42:53.070Z,2.36
2018-02-16T00:44:21.255Z,2.39
2018-02-16T00:45:47.450Z,2.38
2018-02-16T00:47:15.370Z,2.41
2018-02-16T00:48:42.426Z,2.41
2018-02-16T00:50:08.118Z,2.40
2018-02-16T00:51:36.156Z,2.37
2018-02-16T00:53:02.341Z,2.37
2018-02-16T00:54:29.595Z,2.38
2018-02-16T00:55:57.061Z,2.36
2018-02-16T00:57:24.214Z,2.34
2018-02-16T00:58:51.510Z,2.34
2018-02-16T01:00:17.746Z,2.35
2018-02-16T01:01:44.668Z,2.39
2018-02-16T01:03:12.992Z,2.41
2018-02-16T01:04:40.081Z,2.39
2018-02-16T01:06:07.272Z,2.35
2018-02-16T01:07:33.376Z,2.33
2018-02-16T01:09:00.891Z,2.31
2018-02-16T01:10:26.609Z,2.29
2018-02-16T01:11:53.788Z,2.29
2018-02-16T01:13:22.020Z,2.27
2018-02-16T01:14:49.189Z,2.27
2018-02-16T01:16:15.461Z,2.26
2018-02-16T01:17:43.541Z,2.28
2018-02-16T01:19:10.550Z,2.28
2018-02-16T01:20:36.212Z,2.26
2018-02-16T01:22:04.435Z,2.29
2018-02-16T01:23:31.668Z,2.34
2018-02-16T01:24:58.653Z,2.35
2018-02-16T01:26:24.843Z,2.36
2018-02-16T01:27:53.218Z,2.40
2018-02-16T01:29:20.276Z,2.41
2018-02-16T01:30:47.553Z,2.42
2018-02-16T01:32:13.663Z,2.41
2018-02-16T01:33:40.853Z,2.40
2018-02-16T01:35:07.843Z,2.39
2018-02-16T01:36:35.953Z,2.39
2018-02-16T01:38:03.101Z,2.42
2018-02-16T01:39:29.254Z,2.46
2018-02-16T01:40:56.635Z,2.47
2018-02-16T01:42:23.809Z,2.50
2018-02-16T01:43:50.038Z,2.52
2018-02-16T01:45:17.094Z,2.56
2018-02-16T01:46:44.021Z,2.60
2018-02-16T01:48:11.806Z,2.64
2018-02-16T01:49:38.165Z,2.67
2018-02-16T01:51:04.409Z,2.70
2018-02-16T01:52:31.586Z,2.72
2018-02-16T01:53:58.259Z,2.74
2018-02-16T01:55:25.325Z,2.72
2018-02-16T01:56:52.406Z,2.74
2018-02-16T01:58:19.732Z,2.77
2018-02-16T01:59:46.201Z,2.76
2018-02-16T02:01:12.974Z,2.75
2018-02-16T02:02:40.198Z,2.71
2018-02-16T02:04:07.411Z,2.71
2018-02-16T02:05:33.744Z,2.74
2018-02-16T02:07:01.900Z,2.77
2018-02-16T02:08:28.989Z,2.78
2018-02-16T02:09:56.287Z,2.81
2018-02-16T02:11:23.375Z,2.83
2018-02-16T02:12:48.860Z,2.84
2018-02-16T02:14:16.856Z,2.86
2018-02-16T02:15:43.306Z,2.88
2018-02-16T02:17:09.803Z,2.91
2018-02-16T02:18:37.030Z,2.91
2018-02-16T02:20:05.125Z,2.92
2018-02-16T02:21:32.294Z,2.92
2018-02-16T02:22:59.505Z,2.92
2018-02-16T02:24:25.032Z,2.91
2018-02-16T02:25:53.194Z,2.88
2018-02-16T02:27:20.216Z,2.89
2018-02-16T02:28:45.487Z,2.89
2018-02-16T02:30:13.869Z,2.88
2018-02-16T02:31:42.832Z,2.87
2018-02-16T02:33:06.236Z,2.88
2018-02-16T02:34:33.436Z,2.86
2018-02-16T02:36:00.120Z,2.82
2018-02-16T02:37:28.438Z,2.74
2018-02-16T02:38:54.110Z,2.74
2018-02-16T02:40:21.460Z,2.74
2018-02-16T02:41:48.638Z,2.70
2018-02-16T02:43:15.771Z,2.68
2018-02-16T02:44:41.505Z,2.65
2018-02-16T02:46:09.051Z,2.61
2018-02-16T02:47:35.249Z,2.61
2018-02-16T02:49:02.492Z,2.62
2018-02-16T02:50:29.956Z,2.60
2018-02-16T02:51:57.097Z,2.57
2018-02-16T02:53:23.528Z,2.57
2018-02-16T02:54:51.322Z,2.58
2018-02-16T02:56:18.390Z,2.60
2018-02-16T02:57:44.520Z,2.59
2018-02-16T02:59:12.377Z,2.60
2018-02-16T03:00:38.396Z,2.59
2018-02-16T03:02:05.890Z,2.59
2018-02-16T03:03:33.125Z,2.58
2018-02-16T03:04:59.437Z,2.56
2018-02-16T03:06:26.756Z,2.56
2018-02-16T03:07:53.079Z,2.53
2018-02-16T03:09:20.216Z,2.54
2018-02-16T03:10:46.697Z,2.52
2018-02-16T03:12:14.434Z,2.51
2018-02-16T03:13:40.211Z,2.53
2018-02-16T03:15:07.443Z,2.54
2018-02-16T03:16:35.323Z,2.50
2018-02-16T03:18:02.468Z,2.48
2018-02-16T03:19:28.784Z,2.45
2018-02-16T03:20:56.956Z,2.47
2018-02-16T03:22:23.164Z,2.45
2018-02-16T03:23:50.340Z,2.43
2018-02-16T03:25:17.720Z,2.44
2018-02-16T03:26:44.297Z,2.43
2018-02-16T03:28:11.489Z,2.46
2018-02-16T03:29:37.824Z,2.48
2018-02-16T03:31:05.962Z,2.51
2018-02-16T03:32:33.118Z,2.48
2018-02-16T03:34:00.234Z,2.47
2018-02-16T03:35:26.495Z,2.44
2018-02-16T03:36:54.670Z,2.46
2018-02-16T03:38:20.739Z,2.48
2018-02-16T03:39:48.949Z,2.49
2018-02-16T03:41:14.969Z,2.50
2018-02-16T03:42:41.688Z,2.52
2018-02-16T03:44:09.317Z,2.48
2018-02-16T03:45:35.381Z,2.50
2018-02-16T03:47:02.654Z,2.48
2018-02-16T03:48:29.350Z,2.50
2018-02-16T03:49:56.328Z,2.46
2018-02-16T03:51:22.513Z,2.45
2018-02-16T03:52:49.673Z,2.41
2018-02-16T03:54:17.894Z,2.40
2018-02-16T03:55:44.069Z,2.42
2018-02-16T03:57:11.801Z,2.43
2018-02-16T03:58:37.842Z,2.42
2018-02-16T04:00:04.500Z,2.40
2018-02-16T04:01:32.782Z,2.36
2018-02-16T04:03:01.221Z,2.32
2018-02-16T04:04:24.918Z,2.34
2018-02-16T04:05:51.887Z,2.37
2018-02-16T04:07:20.055Z,2.39
2018-02-16T04:08:47.040Z,2.35
2018-02-16T04:10:13.187Z,2.33
2018-02-16T04:11:41.288Z,2.33
2018-02-16T04:13:07.724Z,2.34
2018-02-16T04:14:34.823Z,2.34
2018-02-16T04:16:02.956Z,2.33
2018-02-16T04:17:29.990Z,2.30
2018-02-16T04:18:56.229Z,2.27
2018-02-16T04:20:23.165Z,2.20
2018-02-16T04:21:51.389Z,2.16
2018-02-16T04:23:18.238Z,2.15
2018-02-16T04:24:44.298Z,2.09
2018-02-16T04:26:12.644Z,2.05
2018-02-16T04:27:39.878Z,2.00
2018-02-16T04:29:05.962Z,1.96
2018-02-16T04:30:33.077Z,1.95
2018-02-16T04:32:01.350Z,1.94
2018-02-16T04:33:30.263Z,1.98
2018-02-16T04:34:54.467Z,1.98
2018-02-16T04:36:22.692Z,2.01
2018-02-16T04:37:49.466Z,2.01
2018-02-16T04:39:15.416Z,2.01
2018-02-16T04:40:42.611Z,2.00
2018-02-16T04:42:09.508Z,1.99
2018-02-16T04:43:37.539Z,2.01
2018-02-16T04:45:04.835Z,2.02
2018-02-16T04:46:30.450Z,2.03
2018-02-16T04:47:58.604Z,2.02
2018-02-16T04:49:24.446Z,2.03
2018-02-16T04:50:51.657Z,2.02
2018-02-16T04:52:18.706Z,2.00
2018-02-16T04:53:46.686Z,2.02
2018-02-16T04:55:13.376Z,2.05
2018-02-16T04:56:39.431Z,2.06
2018-02-16T04:58:07.595Z,1.99
2018-02-16T04:59:33.700Z,2.00
2018-02-16T05:01:00.930Z,2.01
2018-02-16T05:02:28.883Z,2.02
2018-02-16T05:03:54.996Z,2.00
2018-02-16T05:05:21.341Z,2.02
2018-02-16T05:06:49.517Z,2.02
2018-02-16T05:08:16.679Z,1.99
2018-02-16T05:09:43.341Z,1.99
2018-02-16T05:11:10.315Z,2.01
2018-02-16T05:12:35.347Z,2.02
2018-02-16T05:14:02.414Z,2.04
2018-02-16T05:15:30.634Z,2.06
2018-02-16T05:16:57.693Z,2.08
2018-02-16T05:18:23.975Z,2.09
2018-02-16T05:19:50.994Z,2.08
2018-02-16T05:21:17.906Z,2.07
2018-02-16T05:22:44.781Z,2.07
2018-02-16T05:24:12.595Z,2.07
2018-02-16T05:25:39.503Z,2.08
2018-02-16T05:27:05.538Z,2.04
2018-02-16T05:28:32.753Z,1.98
2018-02-16T05:29:59.790Z,1.93
2018-02-16T05:31:27.889Z,1.91
2018-02-16T05:32:55.102Z,1.90
2018-02-16T05:34:21.311Z,1.86
2018-02-16T05:35:49.314Z,1.88
2018-02-16T05:37:15.428Z,1.88
2018-02-16T05:38:43.591Z,1.90
2018-02-16T05:40:10.581Z,1.94
2018-02-16T05:41:35.870Z,1.97
2018-02-16T05:43:04.122Z,1.98
2018-02-16T05:44:30.330Z,2.00
2018-02-16T05:45:57.731Z,2.00
2018-02-16T05:47:24.751Z,1.99
2018-02-16T05:48:53.015Z,1.97
2018-02-16T05:50:19.407Z,1.97
2018-02-16T05:51:45.924Z,1.98
2018-02-16T05:53:12.901Z,1.97
2018-02-16T05:54:39.005Z,1.99
2018-02-16T05:56:05.623Z,1.95
2018-02-16T05:57:33.859Z,1.92
2018-02-16T05:58:59.966Z,1.92
2018-02-16T06:00:26.466Z,1.92
2018-02-16T06:01:54.558Z,1.91
2018-02-16T06:03:20.726Z,1.87
2018-02-16T06:04:47.707Z,1.87
2018-02-16T06:06:15.625Z,1.86
2018-02-16T06:07:41.877Z,1.84
2018-02-16T06:09:08.886Z,1.77
2018-02-16T06:10:35.745Z,1.72
2018-02-16T06:12:02.945Z,1.66
2018-02-16T06:13:30.093Z,1.64
2018-02-16T06:14:57.904Z,1.64
2018-02-16T06:16:24.936Z,1.58
2018-02-16T06:17:51.231Z,1.57
2018-02-16T06:19:18.123Z,1.55
2018-02-16T06:20:46.057Z,1.57
2018-02-16T06:22:12.008Z,1.55
2018-02-16T06:23:40.184Z,1.50
2018-02-16T06:25:07.276Z,1.49
2018-02-16T06:26:34.016Z,1.43
2018-02-16T06:28:01.022Z,1.39
2018-02-16T06:29:27.260Z,1.37
2018-02-16T06:30:55.342Z,1.36
2018-02-16T06:32:20.962Z,1.42
2018-02-16T06:33:48.104Z,1.44
2018-02-16T06:35:16.216Z,1.44
2018-02-16T06:36:43.119Z,1.41
2018-02-16T06:38:09.123Z,1.41
2018-02-16T06:39:36.063Z,1.43
2018-02-16T06:41:04.091Z,1.40
2018-02-16T06:42:31.023Z,1.42
2018-02-16T06:43:57.256Z,1.43
2018-02-16T06:45:25.142Z,1.40
2018-02-16T06:46:52.222Z,1.40
2018-02-16T06:48:19.491Z,1.39
2018-02-16T06:49:45.307Z,1.42
2018-02-16T06:51:13.383Z,1.46
2018-02-16T06:52:39.136Z,1.52
2018-02-16T06:54:05.944Z,1.55
2018-02-16T06:55:32.960Z,1.59
2018-02-16T06:57:00.994Z,1.64
2018-02-16T06:58:27.893Z,1.70
2018-02-16T06:59:54.815Z,1.74
2018-02-16T07:01:21.425Z,1.79
2018-02-16T07:02:48.607Z,1.82
2018-02-16T07:04:14.600Z,1.86
2018-02-16T07:05:42.575Z,1.88
2018-02-16T07:07:09.013Z,1.88
2018-02-16T07:08:34.968Z,1.86
2018-02-16T07:10:02.981Z,1.86
2018-02-16T07:11:30.035Z,1.83
2018-02-16T07:12:56.996Z,1.86
2018-02-16T07:14:23.034Z,1.89
2018-02-16T07:15:50.786Z,1.91
2018-02-16T07:17:16.664Z,1.93
2018-02-16T07:18:44.550Z,1.91
2018-02-16T07:20:11.086Z,1.92
2018-02-16T07:21:38.208Z,1.95
2018-02-16T07:23:05.267Z,1.97
2018-02-16T07:24:31.121Z,1.99
2018-02-16T07:25:59.292Z,2.01
2018-02-16T07:27:26.624Z,2.02
2018-02-16T07:28:53.168Z,2.01
2018-02-16T07:30:19.887Z,2.03
2018-02-16T07:31:47.059Z,2.04
2018-02-16T07:33:13.817Z,2.05
2018-02-16T07:34:40.469Z,2.06
2018-02-16T07:36:07.602Z,2.07
2018-02-16T07:37:34.950Z,2.08
2018-02-16T07:39:02.178Z,2.10
2018-02-16T07:40:29.576Z,2.12
2018-02-16T07:41:56.881Z,2.12
2018-02-16T07:43:22.925Z,2.12
2018-02-16T07:44:49.770Z,2.13
2018-02-16T07:46:17.657Z,2.14
2018-02-16T07:47:44.470Z,2.15
2018-02-16T07:49:10.613Z,2.09
2018-02-16T07:50:37.625Z,2.11
2018-02-16T07:52:04.692Z,2.12
2018-02-16T07:53:31.860Z,2.11
2018-02-16T07:54:58.640Z,2.11
2018-02-16T07:56:25.928Z,2.09
2018-02-16T07:57:54.104Z,2.10
2018-02-16T07:59:21.029Z,2.13
2018-02-16T08:00:47.079Z,2.15
2018-02-16T08:02:15.054Z,2.14
2018-02-16T08:03:41.811Z,2.18
2018-02-16T08:05:07.894Z,2.20
2018-02-16T08:06:35.227Z,2.24
2018-02-16T08:08:02.751Z,2.27
2018-02-16T08:09:29.882Z,2.27
2018-02-16T08:11:01.440Z,2.28
2018-02-16T08:12:23.346Z,2.30
2018-02-16T08:13:49.529Z,2.33
2018-02-16T08:15:17.745Z,2.36
2018-02-16T08:16:44.671Z,2.35
2018-02-16T08:18:10.932Z,2.36
2018-02-16T08:19:38.283Z,2.38
2018-02-16T08:21:05.220Z,2.40
2018-02-16T08:22:32.423Z,2.41
2018-02-16T08:23:59.656Z,2.40
2018-02-16T08:25:25.926Z,2.42
2018-02-16T08:26:54.369Z,2.40
2018-02-16T08:28:20.526Z,2.41
2018-02-16T08:29:48.717Z,2.43
2018-02-16T08:31:14.843Z,2.46
2018-02-16T08:32:41.931Z,2.47
2018-02-16T08:34:08.485Z,2.45
2018-02-16T08:35:35.514Z,2.44
2018-02-16T08:37:03.398Z,2.43
2018-02-16T08:38:30.085Z,2.42
2018-02-16T08:39:57.316Z,2.42
2018-02-16T08:41:23.411Z,2.43
2018-02-16T08:42:50.555Z,2.47
2018-02-16T08:44:18.668Z,2.48
2018-02-16T08:45:45.889Z,2.48
2018-02-16T08:47:12.107Z,2.47
2018-02-16T08:48:39.331Z,2.45
2018-02-16T08:50:07.452Z,2.45
2018-02-16T08:51:33.591Z,2.44
2018-02-16T08:53:00.727Z,2.45
2018-02-16T08:54:27.862Z,2.46
2018-02-16T08:55:55.936Z,2.48
2018-02-16T08:57:22.835Z,2.50
2018-02-16T08:58:49.915Z,2.53
2018-02-16T09:00:16.957Z,2.53
2018-02-16T09:01:44.263Z,2.56
2018-02-16T09:03:10.472Z,2.59
2018-02-16T09:04:38.619Z,2.64
2018-02-16T09:06:04.707Z,2.66
2018-02-16T09:07:32.034Z,2.69
2018-02-16T09:08:59.116Z,2.72
2018-02-16T09:10:26.095Z,2.74
2018-02-16T09:11:53.345Z,2.77
2018-02-16T09:13:20.673Z,2.80
2018-02-16T09:14:47.757Z,2.79
2018-02-16T09:16:15.796Z,2.78
2018-02-16T09:17:42.899Z,2.80
2018-02-16T09:19:09.984Z,2.84
2018-02-16T09:20:37.060Z,2.84
2018-02-16T09:22:04.040Z,2.83
2018-02-16T09:23:31.228Z,2.82
2018-02-16T09:24:58.279Z,2.86
2018-02-16T09:26:24.370Z,2.86
2018-02-16T09:27:51.105Z,2.88
2018-02-16T09:29:19.366Z,2.90
2018-02-16T09:30:46.491Z,2.97
2018-02-16T09:32:12.797Z,3.05
2018-02-16T09:33:39.824Z,3.13
2018-02-16T09:35:08.071Z,3.21
2018-02-16T09:36:34.032Z,3.24
2018-02-16T09:38:01.332Z,3.27
2018-02-16T09:39:28.144Z,3.32
2018-02-16T09:40:55.316Z,3.32
2018-02-16T09:42:22.637Z,3.31
2018-02-16T09:43:49.673Z,3.33
2018-02-16T09:45:16.857Z,3.38
2018-02-16T09:46:44.100Z,3.45
2018-02-16T09:48:11.218Z,3.52
2018-02-16T09:49:39.269Z,3.57
2018-02-16T09:51:05.527Z,3.62
2018-02-16T09:52:32.850Z,3.63
2018-02-16T09:54:00.035Z,3.60
2018-02-16T09:55:27.283Z,3.62
2018-02-16T09:56:55.456Z,3.61
2018-02-16T09:58:21.673Z,3.62
2018-02-16T09:59:49.994Z,3.65
2018-02-16T10:01:16.072Z,3.64
2018-02-16T10:02:44.303Z,3.65
2018-02-16T10:04:10.118Z,3.67
2018-02-16T10:05:38.413Z,3.67
2018-02-16T10:07:04.566Z,3.65
2018-02-16T10:08:31.701Z,3.66
2018-02-16T10:09:59.815Z,3.69
2018-02-16T10:11:26.924Z,3.71
2018-02-16T10:12:52.782Z,3.75
2018-02-16T10:14:19.943Z,3.80
2018-02-16T10:15:47.207Z,3.82
2018-02-16T10:17:14.449Z,3.86
2018-02-16T10:18:42.768Z,3.92
2018-02-16T10:20:10.012Z,3.94
2018-02-16T10:21:36.160Z,3.94
2018-02-16T10:23:03.196Z,3.96
2018-02-16T10:24:31.712Z,3.98
2018-02-16T10:25:57.849Z,3.98
2018-02-16T10:27:26.091Z,3.97
2018-02-16T10:28:52.297Z,4.00
2018-02-16T10:30:20.477Z,4.04
2018-02-16T10:31:47.722Z,4.07
2018-02-16T10:33:13.814Z,4.11
2018-02-16T10:34:41.038Z,4.15
2018-02-16T10:36:08.125Z,4.17
2018-02-16T10:37:36.177Z,4.21
2018-02-16T10:39:02.627Z,4.24
2018-02-16T10:40:29.667Z,4.30
2018-02-16T10:41:57.188Z,4.35
2018-02-16T10:43:25.210Z,4.41
2018-02-16T10:44:51.298Z,4.44
2018-02-16T10:46:19.579Z,4.43
2018-02-16T10:47:45.768Z,4.44
2018-02-16T10:49:13.961Z,4.47
2018-02-16T10:50:39.986Z,4.51
2018-02-16T10:52:07.975Z,4.53
2018-02-16T10:53:34.129Z,4.52
2018-02-16T10:55:02.410Z,4.53
2018-02-16T10:56:29.325Z,4.58
2018-02-16T10:57:56.543Z,4.64
2018-02-16T10:59:22.832Z,4.67
2018-02-16T11:00:49.981Z,4.71
2018-02-16T11:02:18.242Z,4.80
2018-02-16T11:03:44.435Z,4.87
2018-02-16T11:05:11.869Z,4.95
2018-02-16T11:06:38.843Z,5.03
2018-02-16T11:08:06.122Z,5.08
2018-02-16T11:09:34.222Z,5.06
2018-02-16T11:11:03.555Z,5.09
2018-02-16T11:12:27.654Z,5.09
2018-02-16T11:13:55.857Z,5.08
2018-02-16T11:15:23.026Z,5.06
2018-02-16T11:16:49.440Z,5.09
2018-02-16T11:18:16.729Z,5.15
2018-02-16T11:19:42.676Z,5.21
2018-02-16T11:21:09.928Z,5.26
2018-02-16T11:22:37.947Z,5.32
2018-02-16T11:24:04.226Z,5.35
2018-02-16T11:25:31.536Z,5.37
2018-02-16T11:26:59.749Z,5.37
2018-02-16T11:28:26.868Z,5.35
2018-02-16T11:29:54.219Z,5.33
2018-02-16T11:31:20.523Z,5.43
2018-02-16T11:32:47.787Z,5.49
2018-02-16T11:34:14.884Z,5.56
2018-02-16T11:35:41.925Z,5.64
2018-02-16T11:37:09.010Z,5.61
2018-02-16T11:38:36.277Z,5.60
2018-02-16T11:40:04.472Z,5.59
2018-02-16T11:41:30.784Z,5.61
2018-02-16T11:42:58.084Z,5.63
2018-02-16T11:44:25.440Z,5.65
2018-02-16T11:45:52.707Z,5.71
2018-02-16T11:47:19.977Z,5.78
2018-02-16T11:48:47.205Z,5.91
2018-02-16T11:50:15.323Z,5.99
2018-02-16T11:51:41.460Z,6.01
2018-02-16T11:53:08.543Z,6.03
2018-02-16T11:54:35.819Z,5.96
2018-02-16T11:56:03.143Z,5.95
2018-02-16T11:57:30.325Z,5.91
2018-02-16T11:58:57.804Z,5.90
2018-02-16T12:00:24.816Z,5.86
2018-02-16T12:01:52.014Z,5.83
2018-02-16T12:03:19.343Z,5.83
2018-02-16T12:04:46.502Z,5.73
2018-02-16T12:06:13.498Z,5.68
2018-02-16T12:07:40.601Z,5.67
2018-02-16T12:09:08.440Z,5.63
2018-02-16T12:10:34.683Z,5.64
2018-02-16T12:12:02.815Z,5.61
2018-02-16T12:13:29.944Z,5.54
2018-02-16T12:14:56.248Z,5.46
2018-02-16T12:16:23.582Z,5.42
2018-02-16T12:17:50.664Z,5.42
2018-02-16T12:19:18.018Z,5.41
2018-02-16T12:20:45.258Z,5.42
2018-02-16T12:22:13.504Z,5.33
2018-02-16T12:23:39.380Z,5.27
2018-02-16T12:25:07.444Z,5.28
2018-02-16T12:26:34.527Z,5.25
2018-02-16T12:28:00.596Z,5.27
2018-02-16T12:29:27.940Z,5.21
2018-02-16T12:30:55.121Z,5.15
2018-02-16T12:32:22.882Z,5.13
2018-02-16T12:33:50.049Z,5.21
2018-02-16T12:35:15.880Z,5.26
2018-02-16T12:36:43.133Z,5.30
2018-02-16T12:38:10.401Z,5.29
2018-02-16T12:39:38.538Z,5.26
2018-02-16T12:41:04.649Z,5.26
2018-02-16T12:42:33.019Z,5.23
2018-02-16T12:43:59.273Z,5.23
2018-02-16T12:45:26.608Z,5.28
2018-02-16T12:46:54.717Z,5.33
2018-02-16T12:48:20.922Z,5.47
2018-02-16T12:49:49.124Z,5.63
2018-02-16T12:51:16.317Z,5.65
2018-02-16T12:52:42.577Z,5.62
2018-02-16T12:54:10.748Z,5.62
2018-02-16T12:55:38.005Z,5.63
2018-02-16T12:57:04.066Z,5.61
2018-02-16T12:58:31.118Z,5.58
2018-02-16T12:59:58.348Z,5.64
2018-02-16T13:01:25.832Z,5.68
2018-02-16T13:02:52.942Z,5.78
2018-02-16T13:04:21.252Z,5.85
2018-02-16T13:05:47.489Z,5.81
2018-02-16T13:07:15.595Z,5.77
2018-02-16T13:08:41.870Z,5.76
2018-02-16T13:10:10.109Z,5.70
2018-02-16T13:11:37.152Z,5.67
2018-02-16T13:13:04.653Z,5.68
2018-02-16T13:14:30.940Z,5.62
2018-02-16T13:15:58.215Z,5.54
2018-02-16T13:17:26.499Z,5.49
2018-02-16T13:18:52.574Z,5.49
2018-02-16T13:20:19.819Z,5.51
2018-02-16T13:21:47.147Z,5.53
2018-02-16T13:23:14.093Z,5.55
2018-02-16T13:24:42.290Z,5.59
2018-02-16T13:26:09.531Z,5.53
2018-02-16T13:27:35.762Z,5.53
2018-02-16T13:29:03.080Z,5.49
2018-02-16T13:30:31.349Z,5.47
2018-02-16T13:31:57.505Z,5.44
2018-02-16T13:33:24.816Z,5.41
2018-02-16T13:34:52.272Z,5.44
2018-02-16T13:36:19.386Z,5.41
2018-02-16T13:37:46.593Z,5.40
2018-02-16T13:39:13.756Z,5.42
2018-02-16T13:40:40.829Z,5.45
2018-02-16T13:42:08.557Z,5.46
2018-02-16T13:43:34.554Z,5.43
2018-02-16T13:45:02.863Z,5.42
2018-02-16T13:46:30.267Z,5.46
2018-02-16T13:47:56.183Z,5.57
2018-02-16T13:49:24.437Z,5.58
2018-02-16T13:50:51.512Z,5.58
2018-02-16T13:52:18.734Z,5.60
2018-02-16T13:53:44.912Z,5.65
2018-02-16T13:55:12.132Z,5.62
2018-02-16T13:56:39.948Z,5.61
2018-02-16T13:58:06.020Z,5.59
2018-02-16T13:59:33.406Z,5.56
2018-02-16T14:01:00.600Z,5.58
2018-02-16T14:02:28.851Z,5.60
2018-02-16T14:03:54.877Z,5.63
2018-02-16T14:05:22.971Z,5.65
2018-02-16T14:06:49.336Z,5.68
2018-02-16T14:08:17.371Z,5.66
2018-02-16T14:09:43.653Z,5.67
2018-02-16T14:11:11.578Z,5.60
2018-02-16T14:12:37.892Z,5.57
2018-02-16T14:14:05.306Z,5.63
2018-02-16T14:15:32.664Z,5.71
2018-02-16T14:16:59.781Z,5.80
2018-02-16T14:18:28.012Z,5.78
2018-02-16T14:19:54.219Z,5.71
2018-02-16T14:21:21.398Z,5.65
2018-02-16T14:22:48.598Z,5.60
2018-02-16T14:24:15.740Z,5.52
2018-02-16T14:25:43.055Z,5.45
2018-02-16T14:27:10.125Z,5.43
2018-02-16T14:28:37.336Z,5.40
2018-02-16T14:30:05.692Z,5.37
2018-02-16T14:31:33.032Z,5.36
2018-02-16T14:32:59.054Z,5.34
2018-02-16T14:34:26.336Z,5.36
2018-02-16T14:35:53.654Z,5.32
2018-02-16T14:37:21.972Z,5.34
2018-02-16T14:38:48.262Z,5.30
2018-02-16T14:40:15.600Z,5.31
2018-02-16T14:41:43.745Z,5.29
2018-02-16T14:43:10.749Z,5.28
2018-02-16T14:44:36.722Z,5.28
2018-02-16T14:46:05.026Z,5.25
2018-02-16T14:47:31.185Z,5.24
2018-02-16T14:48:59.351Z,5.25
2018-02-16T14:50:25.447Z,5.27
2018-02-16T14:51:52.494Z,5.29
2018-02-16T14:53:19.624Z,5.30
2018-02-16T14:54:46.778Z,5.35
2018-02-16T14:56:15.088Z,5.40
2018-02-16T14:57:42.304Z,5.38
2018-02-16T14:59:09.254Z,5.34
2018-02-16T15:00:35.094Z,5.34
2018-02-16T15:02:03.334Z,5.37
2018-02-16T15:03:29.546Z,5.37
2018-02-16T15:04:56.704Z,5.35
2018-02-16T15:06:23.856Z,5.33
2018-02-16T15:07:52.230Z,5.30
2018-02-16T15:09:18.365Z,5.29
2018-02-16T15:10:45.811Z,5.26
2018-02-16T15:12:12.934Z,5.27
2018-02-16T15:13:41.049Z,5.28
2018-02-16T15:15:08.139Z,5.23
2018-02-16T15:16:35.106Z,5.17
2018-02-16T15:18:02.215Z,5.15
2018-02-16T15:19:29.276Z,5.15
2018-02-16T15:20:55.491Z,5.12
2018-02-16T15:22:22.805Z,5.10
2018-02-16T15:23:50.956Z,5.04
2018-02-16T15:25:17.446Z,4.99
2018-02-16T15:26:44.490Z,4.94
2018-02-16T15:28:11.730Z,4.93
2018-02-16T15:29:39.916Z,4.92
2018-02-16T15:31:07.267Z,4.93
2018-02-16T15:32:33.320Z,4.95
2018-02-16T15:34:00.690Z,4.92
2018-02-16T15:35:27.894Z,4.91
2018-02-16T15:36:55.226Z,4.91
2018-02-16T15:38:22.390Z,4.90
2018-02-16T15:39:49.490Z,4.92
2018-02-16T15:41:17.675Z,4.91
2018-02-16T15:42:44.064Z,4.93
2018-02-16T15:44:11.012Z,4.95
2018-02-16T15:45:39.037Z,4.96
2018-02-16T15:47:06.308Z,4.97
2018-02-16T15:48:33.461Z,4.93
2018-02-16T15:50:00.373Z,4.91
2018-02-16T15:51:26.442Z,4.91
2018-02-16T15:52:53.773Z,4.92
2018-02-16T15:54:21.988Z,4.93
2018-02-16T15:55:49.220Z,4.89
2018-02-16T15:57:15.486Z,4.87
2018-02-16T15:58:43.662Z,4.84
2018-02-16T16:00:10.728Z,4.83
2018-02-16T16:01:37.566Z,4.83
2018-02-16T16:03:03.501Z,4.79
2018-02-16T16:04:30.830Z,4.77
2018-02-16T16:05:58.963Z,4.71
2018-02-16T16:07:24.955Z,4.70
2018-02-16T16:08:52.087Z,4.69
2018-02-16T16:10:18.883Z,4.70
2018-02-16T16:11:45.875Z,4.68
2018-02-16T16:13:14.124Z,4.66
2018-02-16T16:14:40.236Z,4.66
2018-02-16T16:16:08.513Z,4.66
2018-02-16T16:17:34.914Z,4.68
2018-02-16T16:19:02.719Z,4.67
2018-02-16T16:20:28.644Z,4.64
2018-02-16T16:21:55.913Z,4.61
2018-02-16T16:23:23.084Z,4.60
2018-02-16T16:24:51.175Z,4.57
2018-02-16T16:26:17.500Z,4.57
2018-02-16T16:27:44.747Z,4.54
2018-02-16T16:29:11.980Z,4.50
2018-02-16T16:30:39.276Z,4.46
2018-02-16T16:32:06.607Z,4.48
2018-02-16T16:33:33.862Z,4.49
2018-02-16T16:35:01.081Z,4.50
2018-02-16T16:36:28.302Z,4.51
2018-02-16T16:37:55.591Z,4.48
2018-02-16T16:39:22.928Z,4.51
2018-02-16T16:40:50.803Z,4.48
2018-02-16T16:42:17.277Z,4.46
2018-02-16T16:43:44.245Z,4.45
2018-02-16T16:45:12.492Z,4.44
2018-02-16T16:46:38.636Z,4.45
2018-02-16T16:48:05.652Z,4.45
2018-02-16T16:49:33.869Z,4.46
2018-02-16T16:50:59.833Z,4.49
2018-02-16T16:52:26.994Z,4.49
2018-02-16T16:53:54.215Z,4.49
2018-02-16T16:55:21.511Z,4.53
2018-02-16T16:56:49.761Z,4.54
2018-02-16T16:58:15.970Z,4.56
2018-02-16T16:59:43.996Z,4.54
2018-02-16T17:01:09.751Z,4.54
2018-02-16T17:02:36.959Z,4.52
2018-02-16T17:04:04.057Z,4.48
2018-02-16T17:05:31.299Z,4.50
2018-02-16T17:06:58.387Z,4.50
2018-02-16T17:08:26.701Z,4.52
2018-02-16T17:09:53.877Z,4.51
2018-02-16T17:11:20.204Z,4.48
2018-02-16T17:12:48.490Z,4.46
2018-02-16T17:14:14.727Z,4.43
2018-02-16T17:15:42.701Z,4.42
2018-02-16T17:17:09.553Z,4.44
2018-02-16T17:18:35.770Z,4.46
2018-02-16T17:20:02.855Z,4.44
2018-02-16T17:21:31.134Z,4.44
2018-02-16T17:22:58.263Z,4.46
2018-02-16T17:24:25.726Z,4.47
2018-02-16T17:25:51.846Z,4.46
2018-02-16T17:27:19.141Z,4.43
2018-02-16T17:28:46.355Z,4.41
2018-02-16T17:30:13.382Z,4.40
2018-02-16T17:31:40.525Z,4.42
2018-02-16T17:33:07.844Z,4.37
2018-02-16T17:34:34.833Z,4.35
2018-02-16T17:36:01.931Z,4.35
2018-02-16T17:37:29.293Z,4.34
2018-02-16T17:38:56.430Z,4.33
2018-02-16T17:40:23.700Z,4.33
2018-02-16T17:41:50.826Z,4.34
2018-02-16T17:43:17.534Z,4.38
2018-02-16T17:44:44.912Z,4.36
2018-02-16T17:46:12.896Z,4.37
2018-02-16T17:47:39.878Z,4.33
2018-02-16T17:49:06.097Z,4.34
2018-02-16T17:50:33.060Z,4.35
2018-02-16T17:52:01.294Z,4.34
2018-02-16T17:53:27.509Z,4.34
2018-02-16T17:54:55.643Z,4.34
2018-02-16T17:56:21.834Z,4.34
2018-02-16T17:57:49.951Z,4.35
2018-02-16T17:59:15.923Z,4.37
2018-02-16T18:00:44.041Z,4.36
2018-02-16T18:02:10.956Z,4.40
2018-02-16T18:03:37.084Z,4.43
2018-02-16T18:05:05.359Z,4.39
2018-02-16T18:06:31.144Z,4.38
2018-02-16T18:07:59.337Z,4.40
2018-02-16T18:09:25.339Z,4.41
2018-02-16T18:10:53.675Z,4.38
2018-02-16T18:12:20.137Z,4.33
2018-02-16T18:13:47.185Z,4.31
2018-02-16T18:15:14.344Z,4.32
2018-02-16T18:16:41.323Z,4.27
2018-02-16T18:18:08.295Z,4.21
2018-02-16T18:19:35.557Z,4.17
2018-02-16T18:21:02.756Z,4.13
2018-02-16T18:22:30.641Z,4.14
2018-02-16T18:23:56.916Z,4.15
2018-02-16T18:25:24.058Z,4.13
2018-02-16T18:26:52.369Z,4.11
2018-02-16T18:28:18.510Z,4.07
2018-02-16T18:29:46.560Z,4.04
2018-02-16T18:31:12.949Z,4.04
2018-02-16T18:32:40.950Z,4.03
2018-02-16T18:34:08.381Z,4.04
2018-02-16T18:35:34.552Z,4.03
2018-02-16T18:37:02.951Z,4.02
2018-02-16T18:38:30.173Z,4.00
2018-02-16T18:39:57.319Z,3.98
2018-02-16T18:41:23.525Z,3.95
2018-02-16T18:42:50.673Z,3.97
2018-02-16T18:44:18.982Z,4.01
2018-02-16T18:45:45.287Z,4.00
2018-02-16T18:47:12.344Z,3.92
2018-02-16T18:48:39.426Z,3.89
2018-02-16T18:50:06.491Z,3.91
2018-02-16T18:51:33.790Z,3.91
2018-02-16T18:53:01.118Z,3.90
2018-02-16T18:54:28.442Z,3.88
2018-02-16T18:55:55.305Z,3.86
2018-02-16T18:57:22.402Z,3.85
2018-02-16T18:58:50.192Z,3.84
2018-02-16T19:00:17.412Z,3.85
2018-02-16T19:01:44.805Z,3.86
2018-02-16T19:03:11.766Z,3.85
2018-02-16T19:04:37.702Z,3.88
2018-02-16T19:06:04.995Z,3.85
2018-02-16T19:07:32.140Z,3.86
2018-02-16T19:08:59.437Z,3.85
2018-02-16T19:10:27.637Z,3.82
2018-02-16T19:11:53.804Z,3.80
2018-02-16T19:13:21.826Z,3.77
2018-02-16T19:14:47.995Z,3.78
2018-02-16T19:16:16.283Z,3.82
2018-02-16T19:17:43.687Z,3.78
2018-02-16T19:19:09.946Z,3.76